Navoi, Uzbekistan
Current Conditions -  °F | °C
As of 12:00 PM on Saturday 20 Dec 2014 (Local Time) from UTSA Reporting Station
Smoke Smoke  
Wind Chill: 52°   Ceiling: Unl
Heat Index: 52°   Visibility: 3mi
Dew Point: 32°   Wind: 10mph
Humidity: 47%   Direction: 160°SSE
Pressure: 30.12"   Gusts: NA
Location:  40.08°N, 65.38°E
Report Text: UTSA 200700Z 16009KT 5000 FU NSC 11/00 Q1020 R07/CLRD70 NOSIG
Loading
Personal Weather Stations






























Interactive Weather Map New forecast layout! Learn more

10-Day Weather Forecast

Advertisements
Track Severe Weather on mobile